ROMMA est une association bénévole à but non lucratif. Votre soutien est indispensable : ADHERER à ROMMA ou FAIRE un DON

Saint-Léger-les-Mélèzes - (05, Hautes-Alpes)

Champsaur (1245 m)   Longitude: 6° 11' 42" E    Latitude: 44° 38' 38" N Station partenaire n°51
 

Détail journalier du     <<     >>

Température Precipitation Humidité Vent Dir Rafale Dir. rafale Ensol.
Heure (°C) (mm) (%) (km/h) (km/h) (min)
01:00 15.20583S19OSO0
02:00 15.10603S11S0
03:00 15.70583S21SSE0
04:00 15.50574O21NO0
05:00 14.10614O23SO0
06:00 12.70685SSO18S0
07:00 11.70721S8SSE0
08:00 11.107605SSO0
09:00 11.107803SSO0
10:00 12.80731E6NE30
11:00 13.90691NE6ENE0
12:00 15.60661ONO13ONO0
13:00 17.70624ONO19NO20
14:00 19.00563ONO13NO60
15:00 19.10513ONO13NO60
16:00 19.90472ONO11ONO60
17:00 19.90482ONO13O60
18:00 18.50512S16OSO50
19:00 15.70614SSO16SSE0
20:00 13.50691SSO10SSE0
21:00 12.20731SSO5SSO0
22:00 11.407605SSO0
23:00 10.90792SSO6SSO0
minuit 10.40821SSO6SSO0

Graphique du 30-09-2019

 

Serveur OMMA